createdAt,value
2018-02-10T00:00:10.946Z,28.60
2018-02-10T00:02:45.412Z,33.43
2018-02-10T00:05:19.705Z,32.03
2018-02-10T00:07:53.438Z,34.77
2018-02-10T00:10:27.307Z,32.40
2018-02-10T00:13:01.027Z,31.53
2018-02-10T00:15:38.088Z,27.43
2018-02-10T00:18:11.566Z,22.57
2018-02-10T00:20:44.944Z,20.07
2018-02-10T00:23:18.383Z,18.47
2018-02-10T00:25:55.102Z,18.23
2018-02-10T00:28:28.418Z,19.50
2018-02-10T00:31:02.629Z,24.13
2018-02-10T00:33:36.368Z,27.60
2018-02-10T00:36:11.092Z,27.30
2018-02-10T00:38:44.356Z,26.37
2018-02-10T00:41:17.737Z,21.30
2018-02-10T00:43:51.208Z,27.40
2018-02-10T00:46:25.798Z,21.67
2018-02-10T00:48:59.278Z,27.00
2018-02-10T00:51:32.641Z,21.40
2018-02-10T00:54:06.163Z,18.60
2018-02-10T00:56:39.559Z,17.27
2018-02-10T00:59:12.923Z,20.23
2018-02-10T01:01:46.451Z,22.07
2018-02-10T01:04:21.221Z,18.00
2018-02-10T01:06:54.988Z,17.83
2018-02-10T01:09:28.452Z,19.70
2018-02-10T01:12:01.552Z,19.27
2018-02-10T01:14:39.048Z,17.60
2018-02-10T01:17:12.431Z,17.57
2018-02-10T01:19:46.271Z,17.60
2018-02-10T01:22:20.184Z,19.40
2018-02-10T01:24:57.477Z,19.60
2018-02-10T01:27:30.887Z,19.70
2018-02-10T01:30:04.423Z,17.67
2018-02-10T01:32:38.847Z,16.57
2018-02-10T01:35:13.672Z,17.50
2018-02-10T01:37:46.956Z,17.47
2018-02-10T01:40:20.719Z,16.53
2018-02-10T01:42:54.111Z,17.43
2018-02-10T01:45:28.826Z,16.73
2018-02-10T01:48:02.775Z,16.20
2018-02-10T01:50:36.308Z,16.77
2018-02-10T01:53:09.767Z,15.90
2018-02-10T01:55:49.104Z,18.07
2018-02-10T01:58:22.686Z,15.93
2018-02-10T02:00:56.435Z,17.43
2018-02-10T02:03:30.073Z,17.07
2018-02-10T02:06:04.612Z,18.13
2018-02-10T02:08:37.916Z,17.17
2018-02-10T02:11:11.288Z,16.00
2018-02-10T02:13:45.499Z,17.70
2018-02-10T02:16:19.944Z,17.77
2018-02-10T02:18:53.733Z,16.83
2018-02-10T02:21:27.591Z,16.23
2018-02-10T02:24:03.872Z,16.43
2018-02-10T02:26:37.247Z,15.87
2018-02-10T02:29:11.076Z,17.20
2018-02-10T02:31:44.175Z,16.23
2018-02-10T02:34:18.320Z,16.43
2018-02-10T02:36:52.028Z,16.23
2018-02-10T02:39:26.699Z,15.83
2018-02-10T02:42:00.109Z,17.23
2018-02-10T02:44:37.313Z,16.67
2018-02-10T02:47:10.393Z,15.97
2018-02-10T02:49:43.980Z,16.47
2018-02-10T02:52:17.513Z,16.73
2018-02-10T02:54:53.893Z,15.77
2018-02-10T02:57:27.272Z,17.70
2018-02-10T03:00:00.630Z,17.37
2018-02-10T03:02:33.956Z,15.63
2018-02-10T03:05:08.618Z,16.30
2018-02-10T03:07:42.681Z,17.93
2018-02-10T03:10:15.876Z,18.97
2018-02-10T03:12:49.531Z,22.73
2018-02-10T03:15:24.076Z,20.63
2018-02-10T03:17:57.767Z,16.67
2018-02-10T03:20:31.157Z,18.00
2018-02-10T03:23:05.155Z,17.57
2018-02-10T03:25:42.328Z,19.20
2018-02-10T03:28:15.739Z,18.73
2018-02-10T03:30:49.599Z,17.90
2018-02-10T03:33:22.876Z,18.93
2018-02-10T03:35:58.524Z,18.27
2018-02-10T03:38:31.752Z,17.63
2018-02-10T03:41:06.495Z,16.77
2018-02-10T03:43:39.772Z,16.77
2018-02-10T03:46:13.508Z,17.53
2018-02-10T03:48:47.223Z,16.77
2018-02-10T03:51:21.166Z,16.73
2018-02-10T03:53:57.769Z,17.20
2018-02-10T03:56:31.131Z,18.43
2018-02-10T03:59:04.699Z,17.97
2018-02-10T04:01:38.196Z,21.73
2018-02-10T04:04:13.002Z,26.67
2018-02-10T04:06:46.088Z,36.30
2018-02-10T04:09:19.533Z,26.90
2018-02-10T04:11:53.150Z,27.03
2018-02-10T04:14:26.632Z,26.23
2018-02-10T04:17:00.096Z,32.57
2018-02-10T04:19:33.556Z,33.60
2018-02-10T04:22:06.940Z,32.33
2018-02-10T04:24:43.715Z,32.73
2018-02-10T04:27:17.169Z,34.10
2018-02-10T04:29:50.495Z,32.27
2018-02-10T04:32:23.973Z,59.10
2018-02-10T04:35:00.583Z,59.60
2018-02-10T04:37:33.904Z,39.07
2018-02-10T04:40:07.474Z,45.90
2018-02-10T04:42:40.492Z,47.67
2018-02-10T04:45:18.585Z,36.17
2018-02-10T04:47:52.002Z,31.53
2018-02-10T04:50:25.763Z,25.40
2018-02-10T04:52:59.165Z,24.80
2018-02-10T04:55:34.487Z,27.47
2018-02-10T04:58:07.733Z,50.27
2018-02-10T05:00:41.688Z,44.30
2018-02-10T05:03:15.644Z,28.87
2018-02-10T05:05:49.223Z,24.10
2018-02-10T05:08:22.443Z,24.43
2018-02-10T05:10:56.249Z,26.63
2018-02-10T05:13:29.791Z,26.07
2018-02-10T05:16:03.311Z,23.53
2018-02-10T05:18:36.827Z,24.33
2018-02-10T05:21:10.501Z,23.27
2018-02-10T05:23:47.464Z,22.63
2018-02-10T05:26:20.656Z,25.83
2018-02-10T05:28:54.235Z,23.27
2018-02-10T05:31:28.129Z,24.37
2018-02-10T05:34:03.160Z,22.63
2018-02-10T05:36:36.388Z,23.67
2018-02-10T05:39:09.898Z,26.30
2018-02-10T05:41:43.315Z,21.43
2018-02-10T05:44:20.637Z,19.97
2018-02-10T05:46:54.024Z,18.43
2018-02-10T05:49:27.757Z,19.27
2018-02-10T05:52:00.885Z,19.07
2018-02-10T05:54:35.293Z,18.50
2018-02-10T05:57:08.807Z,19.97
2018-02-10T05:59:42.543Z,19.07
2018-02-10T06:02:16.345Z,22.13
2018-02-10T06:05:00.510Z,21.80
2018-02-10T06:07:34.768Z,19.30
2018-02-10T06:10:07.954Z,19.57
2018-02-10T06:12:41.892Z,20.60
2018-02-10T06:15:18.496Z,18.97
2018-02-10T06:17:51.895Z,18.87
2018-02-10T06:20:26.144Z,18.17
2018-02-10T06:22:59.703Z,25.87
2018-02-10T06:25:37.103Z,22.03
2018-02-10T06:28:10.432Z,20.17
2018-02-10T06:30:44.028Z,19.07
2018-02-10T06:33:17.701Z,19.17
2018-02-10T06:35:51.072Z,21.10
2018-02-10T06:38:24.333Z,26.33
2018-02-10T06:40:57.667Z,26.47
2018-02-10T06:43:31.139Z,28.47
2018-02-10T06:52:54.164Z,32.47
2018-02-10T06:55:32.590Z,24.83
2018-02-10T06:58:06.055Z,21.27
2018-02-10T07:00:39.418Z,20.20
2018-02-10T07:03:15.859Z,19.47
2018-02-10T07:05:49.293Z,20.60
2018-02-10T07:08:22.721Z,19.23
2018-02-10T07:10:56.053Z,18.43
2018-02-10T07:13:30.580Z,18.70
2018-02-10T07:16:03.698Z,17.80
2018-02-10T07:18:37.192Z,19.40
2018-02-10T07:21:10.571Z,17.53
2018-02-10T07:23:45.013Z,19.10
2018-02-10T07:26:18.380Z,21.93
2018-02-10T07:28:51.485Z,24.47
2018-02-10T07:31:25.797Z,29.00
2018-02-10T07:34:00.412Z,25.47
2018-02-10T07:36:33.920Z,23.20
2018-02-10T07:39:07.321Z,21.50
2018-02-10T07:41:41.749Z,17.73
2018-02-10T07:44:18.522Z,20.23
2018-02-10T07:46:51.924Z,21.47
2018-02-10T07:49:25.468Z,18.97
2018-02-10T07:51:58.824Z,15.53
2018-02-10T07:54:36.401Z,16.43
2018-02-10T07:57:09.626Z,17.70
2018-02-10T07:59:43.224Z,19.60
2018-02-10T08:02:16.949Z,17.77
2018-02-10T08:04:54.636Z,20.73
2018-02-10T08:07:28.536Z,17.73
2018-02-10T08:10:02.200Z,15.97
2018-02-10T08:12:35.596Z,18.40
2018-02-10T08:15:09.892Z,24.67
2018-02-10T08:17:43.906Z,19.07
2018-02-10T08:20:17.613Z,19.07
2018-02-10T08:22:52.162Z,22.27
2018-02-10T08:25:25.273Z,18.60
2018-02-10T08:27:58.805Z,18.60
2018-02-10T08:30:33.340Z,17.60
2018-02-10T08:33:14.466Z,20.10
2018-02-10T08:35:48.393Z,21.93
2018-02-10T08:38:21.736Z,28.40
2018-02-10T08:40:55.464Z,34.13
2018-02-10T08:43:28.944Z,35.83
2018-02-10T08:46:03.044Z,33.63
2018-02-10T08:48:37.119Z,37.17
2018-02-10T08:51:10.705Z,33.27
2018-02-10T08:53:45.642Z,33.07
2018-02-10T08:56:19.117Z,30.73
2018-02-10T08:58:55.714Z,30.67
2018-02-10T09:01:29.155Z,33.13
2018-02-10T09:04:03.874Z,31.67
2018-02-10T09:06:37.323Z,31.20
2018-02-10T09:09:10.864Z,33.73
2018-02-10T09:11:44.325Z,31.17
2018-02-10T09:14:21.168Z,29.50
2018-02-10T09:16:54.637Z,29.87
2018-02-10T09:19:28.569Z,29.67
2018-02-10T09:22:02.575Z,28.43
2018-02-10T09:24:40.113Z,39.30
2018-02-10T09:27:13.244Z,26.07
2018-02-10T09:29:46.669Z,28.30
2018-02-10T09:32:20.863Z,25.77
2018-02-10T09:34:58.006Z,24.87
2018-02-10T09:37:31.430Z,21.03
2018-02-10T09:40:05.773Z,16.67
2018-02-10T09:42:39.569Z,19.07
2018-02-10T09:45:14.302Z,17.50
2018-02-10T09:47:48.076Z,16.77
2018-02-10T09:50:21.648Z,15.70
2018-02-10T09:52:55.444Z,16.97
2018-02-10T09:55:28.965Z,16.23
2018-02-10T09:58:02.404Z,16.87
2018-02-10T10:00:35.979Z,16.17
2018-02-10T10:03:10.805Z,16.27
2018-02-10T10:05:44.128Z,16.57
2018-02-10T10:08:28.638Z,19.60
2018-02-10T10:11:02.152Z,14.30
2018-02-10T10:13:49.474Z,13.93
2018-02-10T10:16:24.145Z,15.67
2018-02-10T10:18:58.033Z,14.97
2018-02-10T10:21:31.384Z,13.43
2018-02-10T10:24:06.209Z,11.53
2018-02-10T10:26:39.741Z,12.97
2018-02-10T10:29:13.090Z,15.43
2018-02-10T10:31:47.253Z,14.63
2018-02-10T10:34:21.151Z,12.97
2018-02-10T10:36:54.409Z,15.03
2018-02-10T10:39:27.689Z,17.07
2018-02-10T10:42:01.253Z,25.20
2018-02-10T10:44:35.650Z,18.73
2018-02-10T10:47:09.882Z,15.87
2018-02-10T10:49:43.600Z,16.73
2018-02-10T10:52:17.330Z,17.90
2018-02-10T10:54:51.203Z,29.47
2018-02-10T10:57:27.529Z,21.87
2018-02-10T11:00:00.986Z,17.47
2018-02-10T11:02:34.749Z,16.70
2018-02-10T11:05:08.705Z,14.37
2018-02-10T11:07:42.085Z,14.20
2018-02-10T11:10:15.445Z,13.30
2018-02-10T11:12:49.029Z,13.47
2018-02-10T11:15:22.393Z,13.80
2018-02-10T11:17:55.837Z,15.07
2018-02-10T11:20:29.096Z,19.87
2018-02-10T11:23:02.904Z,15.83
2018-02-10T11:25:36.160Z,26.23
2018-02-10T11:28:09.865Z,17.17
2018-02-10T11:30:44.630Z,13.97
2018-02-10T11:33:18.586Z,12.40
2018-02-10T11:35:52.647Z,13.20
2018-02-10T11:38:26.308Z,14.57
2018-02-10T11:41:00.410Z,15.03
2018-02-10T11:43:34.037Z,16.10
2018-02-10T11:46:07.448Z,12.87
2018-02-10T11:48:40.803Z,30.03
2018-02-10T11:51:14.740Z,14.80
2018-02-10T11:53:48.714Z,13.70
2018-02-10T11:56:22.220Z,13.33
2018-02-10T11:58:55.729Z,13.17
2018-02-10T12:01:29.384Z,16.93
2018-02-10T12:04:03.329Z,18.10
2018-02-10T12:06:36.666Z,17.47
2018-02-10T12:09:10.900Z,16.93
2018-02-10T12:11:44.656Z,18.83
2018-02-10T12:14:25.360Z,14.40
2018-02-10T12:16:59.102Z,12.07
2018-02-10T12:19:32.576Z,11.53
2018-02-10T12:22:06.186Z,15.03
2018-02-10T12:24:40.181Z,12.63
2018-02-10T12:27:13.648Z,13.63
2018-02-10T12:29:47.333Z,12.20
2018-02-10T12:32:20.775Z,14.73
2018-02-10T12:34:54.237Z,17.03
2018-02-10T12:37:27.729Z,14.00
2018-02-10T12:40:01.153Z,15.50
2018-02-10T12:42:36.030Z,15.17
2018-02-10T12:45:09.284Z,15.67
2018-02-10T12:50:32.546Z,12.57
2018-02-10T12:53:07.361Z,10.67
2018-02-10T12:55:40.806Z,19.33
2018-02-10T12:58:14.193Z,14.77
2018-02-10T13:00:48.108Z,15.57
2018-02-10T13:03:21.755Z,15.07
2018-02-10T13:05:55.161Z,18.00
2018-02-10T13:08:28.352Z,17.13
2018-02-10T13:11:01.665Z,14.23
2018-02-10T13:13:38.836Z,17.07
2018-02-10T13:16:12.193Z,29.57
2018-02-10T13:18:45.517Z,21.27
2018-02-10T13:21:18.776Z,19.47
2018-02-10T13:23:52.387Z,13.10
2018-02-10T13:26:26.407Z,13.97
2018-02-10T13:28:59.651Z,11.90
2018-02-10T13:31:32.878Z,12.57
2018-02-10T13:34:06.265Z,14.37
2018-02-10T13:36:40.082Z,12.70
2018-02-10T13:39:13.813Z,13.37
2018-02-10T13:41:47.004Z,21.73
2018-02-10T13:44:21.445Z,14.47
2018-02-10T13:46:54.502Z,10.87
2018-02-10T13:49:27.664Z,11.97
2018-02-10T13:52:01.170Z,13.53
2018-02-10T13:54:35.616Z,11.03
2018-02-10T13:57:09.613Z,12.03
2018-02-10T13:59:43.128Z,16.13
2018-02-10T14:02:16.450Z,14.00
2018-02-10T14:04:49.906Z,13.00
2018-02-10T14:07:23.188Z,17.70
2018-02-10T14:09:56.472Z,22.40
2018-02-10T14:12:30.820Z,14.07
2018-02-10T14:15:04.784Z,16.63
2018-02-10T14:17:39.320Z,16.27
2018-02-10T14:20:12.749Z,17.13
2018-02-10T14:22:47.065Z,16.80
2018-02-10T14:25:20.228Z,12.07
2018-02-10T14:27:53.616Z,13.43
2018-02-10T14:30:26.728Z,15.93
2018-02-10T14:33:00.410Z,13.20
2018-02-10T14:35:34.361Z,19.67
2018-02-10T14:38:07.566Z,16.10
2018-02-10T14:40:41.396Z,22.80
2018-02-10T14:43:16.551Z,19.93
2018-02-10T14:45:50.318Z,21.40
2018-02-10T14:48:24.505Z,25.77
2018-02-10T14:50:58.456Z,25.63
2018-02-10T14:53:32.960Z,21.70
2018-02-10T14:56:07.576Z,22.57
2018-02-10T14:58:41.964Z,29.63
2018-02-10T15:01:16.132Z,31.37
2018-02-10T15:03:52.192Z,28.63
2018-02-10T15:06:27.288Z,22.17
2018-02-10T15:09:01.784Z,22.50
2018-02-10T15:11:37.449Z,23.57
2018-02-10T15:14:14.625Z,22.57
2018-02-10T15:16:51.456Z,23.40
2018-02-10T15:19:25.652Z,22.07
2018-02-10T15:22:01.219Z,19.50
2018-02-10T15:24:35.928Z,13.83
2018-02-10T15:27:09.545Z,23.93
2018-02-10T15:29:55.393Z,17.00
2018-02-10T15:32:41.451Z,21.77
2018-02-10T15:35:17.538Z,22.00
2018-02-10T15:40:30.193Z,21.27
2018-02-10T15:43:06.741Z,17.93
2018-02-10T15:45:40.075Z,19.50
2018-02-10T15:48:13.986Z,16.23
2018-02-10T15:50:49.262Z,28.20
2018-02-10T15:53:26.921Z,18.80
2018-02-10T15:56:01.429Z,25.67
2018-02-10T15:58:35.562Z,17.57
2018-02-10T16:01:10.508Z,19.73
2018-02-10T16:03:44.765Z,18.03
2018-02-10T16:06:19.209Z,21.77
2018-02-10T16:08:53.437Z,21.87
2018-02-10T16:11:26.813Z,22.20
2018-02-10T16:14:01.813Z,23.73
2018-02-10T16:16:36.133Z,24.40
2018-02-10T16:19:10.176Z,17.80
2018-02-10T16:21:45.856Z,49.97
2018-02-10T16:24:19.812Z,41.30
2018-02-10T16:26:54.408Z,24.90
2018-02-10T16:29:28.755Z,23.33
2018-02-10T16:32:04.322Z,23.07
2018-02-10T16:34:38.573Z,20.73
2018-02-10T16:37:13.097Z,19.17
2018-02-10T16:39:47.729Z,20.10
2018-02-10T16:42:23.598Z,19.50
2018-02-10T16:44:58.521Z,15.80
2018-02-10T16:47:33.633Z,15.43
2018-02-10T16:50:06.992Z,18.37
2018-02-10T16:52:41.059Z,15.20
2018-02-10T16:55:15.477Z,19.23
2018-02-10T16:57:49.620Z,19.10
2018-02-10T17:00:23.892Z,21.23
2018-02-10T17:02:59.934Z,16.00
2018-02-10T17:05:34.716Z,17.80
2018-02-10T17:08:09.256Z,25.47
2018-02-10T17:10:43.702Z,24.03
2018-02-10T17:13:18.082Z,21.10
2018-02-10T17:15:52.963Z,20.17
2018-02-10T17:18:26.845Z,18.77
2018-02-10T17:21:01.051Z,17.83
2018-02-10T17:23:35.841Z,19.37
2018-02-10T17:26:09.477Z,16.93
2018-02-10T17:28:44.052Z,18.23
2018-02-10T17:31:17.709Z,21.27
2018-02-10T17:33:53.137Z,14.97
2018-02-10T17:36:28.146Z,17.47
2018-02-10T17:39:02.943Z,21.17
2018-02-10T17:41:37.366Z,13.80
2018-02-10T17:44:11.365Z,16.53
2018-02-10T17:46:46.203Z,17.23
2018-02-10T17:49:19.529Z,25.03
2018-02-10T17:52:00.323Z,21.70
2018-02-10T17:54:35.202Z,34.33
2018-02-10T17:57:10.663Z,20.90
2018-02-10T17:59:44.727Z,20.10
2018-02-10T18:02:19.820Z,27.07
2018-02-10T18:04:54.942Z,18.53
2018-02-10T18:07:28.823Z,26.30
2018-02-10T18:10:03.091Z,22.73
2018-02-10T18:12:40.866Z,24.90
2018-02-10T18:15:15.494Z,18.77
2018-02-10T18:17:50.880Z,18.40
2018-02-10T18:20:24.824Z,24.27
2018-02-10T18:23:02.624Z,24.83
2018-02-10T18:25:38.185Z,14.73
2018-02-10T18:28:13.327Z,15.10
2018-02-10T18:30:48.022Z,15.03
2018-02-10T18:33:23.757Z,16.03
2018-02-10T18:35:58.026Z,18.60
2018-02-10T18:38:34.501Z,33.13
2018-02-10T18:41:09.198Z,19.93
2018-02-10T18:43:45.598Z,25.17
2018-02-10T18:46:19.950Z,23.43
2018-02-10T18:48:54.369Z,25.60
2018-02-10T18:51:28.195Z,16.40
2018-02-10T18:54:03.902Z,15.63
2018-02-10T18:56:39.403Z,19.87
2018-02-10T18:59:13.345Z,15.53
2018-02-10T19:01:51.245Z,15.27
2018-02-10T19:04:25.253Z,16.47
2018-02-10T19:06:59.523Z,15.03
2018-02-10T19:09:33.636Z,12.80
2018-02-10T19:12:11.638Z,22.20
2018-02-10T19:14:46.298Z,17.70
2018-02-10T19:17:20.837Z,15.57
2018-02-10T19:19:54.576Z,10.40
2018-02-10T19:22:29.379Z,12.90
2018-02-10T19:25:03.938Z,11.70
2018-02-10T19:27:38.865Z,12.77
2018-02-10T19:30:13.712Z,13.27
2018-02-10T19:32:53.236Z,16.40
2018-02-10T19:35:27.828Z,17.17
2018-02-10T19:38:01.994Z,12.67
2018-02-10T19:40:36.823Z,13.70
2018-02-10T19:43:11.999Z,12.87
2018-02-10T19:45:46.608Z,14.70
2018-02-10T19:48:21.258Z,12.50
2018-02-10T19:50:55.707Z,11.53
2018-02-10T19:53:33.561Z,11.10
2018-02-10T19:56:07.910Z,13.00
2018-02-10T19:58:43.404Z,11.73
2018-02-10T20:01:19.115Z,12.73
2018-02-10T20:03:53.621Z,10.87
2018-02-10T20:06:27.596Z,11.87
2018-02-10T20:09:02.956Z,11.00
2018-02-10T20:11:40.698Z,10.47
2018-02-10T20:14:15.328Z,10.10
2018-02-10T20:16:49.617Z,10.60
2018-02-10T20:19:23.707Z,11.60
2018-02-10T20:22:02.013Z,9.97
2018-02-10T20:24:36.918Z,10.37
2018-02-10T20:27:11.201Z,11.73
2018-02-10T20:29:44.920Z,11.93
2018-02-10T20:32:22.670Z,12.07
2018-02-10T20:34:56.757Z,11.37
2018-02-10T20:37:32.429Z,11.70
2018-02-10T20:40:05.749Z,11.43
2018-02-10T20:42:44.137Z,9.80
2018-02-10T20:45:18.628Z,11.30
2018-02-10T20:47:53.279Z,10.43
2018-02-10T20:50:28.292Z,11.07
2018-02-10T20:53:04.932Z,12.40
2018-02-10T20:55:39.160Z,10.97
2018-02-10T20:58:13.537Z,11.03
2018-02-10T21:00:47.936Z,9.73
2018-02-10T21:03:22.805Z,10.40
2018-02-10T21:05:57.888Z,10.83
2018-02-10T21:08:32.804Z,10.83
2018-02-10T21:11:07.073Z,12.40
2018-02-10T21:13:40.916Z,11.30
2018-02-10T21:16:15.411Z,9.90
2018-02-10T21:18:49.761Z,11.70
2018-02-10T21:21:24.681Z,13.30
2018-02-10T21:23:58.297Z,12.37
2018-02-10T21:26:33.412Z,13.70
2018-02-10T21:29:07.560Z,12.63
2018-02-10T21:31:41.623Z,12.17
2018-02-10T21:34:16.973Z,12.03
2018-02-10T21:36:51.156Z,11.77
2018-02-10T21:39:25.284Z,12.00
2018-02-10T21:42:03.145Z,10.93
2018-02-10T21:44:37.198Z,10.97
2018-02-10T21:47:11.921Z,11.90
2018-02-10T21:49:45.797Z,13.53
2018-02-10T21:52:21.872Z,12.73
2018-02-10T21:54:55.069Z,13.67
2018-02-10T21:57:29.394Z,12.93
2018-02-10T22:00:03.129Z,13.87
2018-02-10T22:02:38.781Z,14.63
2018-02-10T22:05:12.528Z,13.93
2018-02-10T22:07:47.717Z,11.67
2018-02-10T22:10:22.227Z,11.70
2018-02-10T22:13:00.485Z,11.53
2018-02-10T22:15:34.864Z,11.20
2018-02-10T22:18:08.221Z,11.60
2018-02-10T22:20:42.795Z,11.73
2018-02-10T22:23:21.030Z,13.20
2018-02-10T22:25:55.175Z,11.60
2018-02-10T22:28:29.300Z,13.07
2018-02-10T22:31:05.424Z,13.40
2018-02-10T22:33:39.855Z,14.17
2018-02-10T22:36:13.584Z,13.73
2018-02-10T22:38:46.703Z,14.20
2018-02-10T22:41:24.467Z,11.87
2018-02-10T22:43:58.903Z,14.10
2018-02-10T22:46:33.684Z,12.77
2018-02-10T22:49:08.053Z,14.20
2018-02-10T22:51:42.678Z,14.03
2018-02-10T22:54:17.535Z,12.73
2018-02-10T22:56:51.893Z,14.10
2018-02-10T22:59:26.568Z,12.57
2018-02-10T23:02:03.187Z,12.40
2018-02-10T23:04:37.344Z,11.93
2018-02-10T23:07:10.776Z,11.30
2018-02-10T23:09:44.823Z,11.83
2018-02-10T23:12:20.452Z,10.00
2018-02-10T23:14:54.983Z,10.20
2018-02-10T23:17:28.739Z,9.17
2018-02-10T23:20:02.822Z,10.77
2018-02-10T23:22:41.259Z,10.83
2018-02-10T23:25:15.724Z,10.53
2018-02-10T23:27:49.881Z,11.57
2018-02-10T23:30:22.975Z,9.53
2018-02-10T23:33:03.720Z,12.20
2018-02-10T23:35:37.456Z,9.30
2018-02-10T23:38:12.415Z,10.97
2018-02-10T23:40:47.235Z,9.13
2018-02-10T23:43:21.875Z,10.73
2018-02-10T23:45:55.805Z,12.07
2018-02-10T23:48:30.063Z,8.90
2018-02-10T23:51:05.551Z,9.80
2018-02-10T23:53:39.592Z,10.57
2018-02-10T23:56:13.959Z,8.57
2018-02-10T23:58:49.596Z,8.77
